createdAt,value
2023-01-13T00:01:29.359Z,3.78
2023-01-13T00:03:57.813Z,3.75
2023-01-13T00:06:26.223Z,3.76
2023-01-13T00:08:55.005Z,3.78
2023-01-13T00:11:24.556Z,3.75
2023-01-13T00:13:52.618Z,3.76
2023-01-13T00:16:21.335Z,3.78
2023-01-13T00:18:51.366Z,3.77
2023-01-13T00:21:24.568Z,3.78
2023-01-13T00:23:54.516Z,3.78
2023-01-13T00:26:28.555Z,3.78
2023-01-13T00:28:58.669Z,3.78
2023-01-13T00:31:28.713Z,3.78
2023-01-13T00:33:58.720Z,3.75
2023-01-13T00:36:27.518Z,3.74
2023-01-13T00:38:55.376Z,3.77
2023-01-13T00:41:25.413Z,3.80
2023-01-13T00:43:53.818Z,3.81
2023-01-13T00:46:22.981Z,3.86
2023-01-13T00:48:51.670Z,3.88
2023-01-13T00:51:21.756Z,3.86
2023-01-13T00:53:51.772Z,3.86
2023-01-13T00:56:39.055Z,3.86
2023-01-13T00:59:11.003Z,3.80
2023-01-13T01:01:40.023Z,3.77
2023-01-13T01:04:08.221Z,3.64
2023-01-13T01:06:36.123Z,3.71
2023-01-13T01:09:04.823Z,3.58
2023-01-13T01:11:34.050Z,3.51
2023-01-13T01:14:04.064Z,3.57
2023-01-13T01:16:33.650Z,3.58
2023-01-13T01:19:02.670Z,3.57
2023-01-13T01:21:31.165Z,3.60
2023-01-13T01:24:01.664Z,3.61
2023-01-13T01:26:30.738Z,3.61
2023-01-13T01:28:59.685Z,3.63
2023-01-13T01:31:33.497Z,3.63
2023-01-13T01:34:02.391Z,3.64
2023-01-13T01:36:30.455Z,3.66
2023-01-13T01:38:59.606Z,3.65
2023-01-13T01:41:31.967Z,3.64
2023-01-13T01:44:04.623Z,3.64
2023-01-13T01:46:36.904Z,3.60
2023-01-13T01:49:14.105Z,3.61
2023-01-13T01:52:16.342Z,3.57
2023-01-13T01:54:49.126Z,3.53
2023-01-13T01:57:26.541Z,3.50
2023-01-13T01:59:55.302Z,3.50
2023-01-13T02:02:23.639Z,3.50
2023-01-13T02:04:55.097Z,3.49
2023-01-13T02:07:29.882Z,3.49
2023-01-13T02:10:01.945Z,3.52
2023-01-13T02:12:32.633Z,3.54
2023-01-13T02:15:22.431Z,3.52
2023-01-13T02:18:09.149Z,3.50
2023-01-13T02:20:43.015Z,3.50
2023-01-13T02:24:08.201Z,3.51
2023-01-13T02:27:03.414Z,3.51
2023-01-13T02:30:05.772Z,3.53
2023-01-13T02:33:14.076Z,3.58
2023-01-13T02:35:55.766Z,3.57
2023-01-13T02:38:31.414Z,3.55
2023-01-13T02:41:33.698Z,3.56
2023-01-13T02:44:06.964Z,3.60
2023-01-13T02:46:42.603Z,3.59
2023-01-13T02:49:17.079Z,3.57
2023-01-13T02:51:47.551Z,3.58
2023-01-13T02:54:24.584Z,3.59
2023-01-13T02:56:54.855Z,3.50
2023-01-13T02:59:26.383Z,3.50
2023-01-13T03:01:57.776Z,3.52
2023-01-13T03:04:50.593Z,3.49
2023-01-13T03:07:36.969Z,3.46
2023-01-13T03:10:25.676Z,3.42
2023-01-13T03:12:53.616Z,3.49
2023-01-13T03:15:40.554Z,3.49
2023-01-13T03:18:28.788Z,3.50
2023-01-13T03:21:11.801Z,3.48
2023-01-13T03:23:50.708Z,3.42
2023-01-13T03:26:44.582Z,3.42
2023-01-13T03:29:23.642Z,3.43
2023-01-13T03:32:13.291Z,3.44
2023-01-13T03:34:57.639Z,3.38
2023-01-13T03:37:33.505Z,3.40
2023-01-13T03:40:08.774Z,3.33
2023-01-13T03:42:38.340Z,3.37
2023-01-13T03:45:12.259Z,3.34
2023-01-13T03:47:42.796Z,3.31
2023-01-13T03:50:17.726Z,3.34
2023-01-13T03:52:52.092Z,3.32
2023-01-13T03:55:24.813Z,3.35
2023-01-13T03:58:06.959Z,3.35
2023-01-13T04:00:46.510Z,3.40
2023-01-13T04:03:23.288Z,3.42
2023-01-13T04:05:56.709Z,3.48
2023-01-13T04:08:27.065Z,3.42
2023-01-13T04:11:07.440Z,3.44
2023-01-13T04:13:39.356Z,3.48
2023-01-13T04:16:09.004Z,3.50
2023-01-13T04:18:39.034Z,3.51
2023-01-13T04:21:08.046Z,3.51
2023-01-13T04:23:37.560Z,3.51
2023-01-13T04:26:05.710Z,3.47
2023-01-13T04:28:35.215Z,3.52
2023-01-13T04:31:03.331Z,3.54
2023-01-13T04:33:31.266Z,3.56
2023-01-13T04:35:59.640Z,3.51
2023-01-13T04:38:27.811Z,3.56
2023-01-13T04:40:55.883Z,3.54
2023-01-13T04:43:23.848Z,3.55
2023-01-13T04:45:52.065Z,3.46
2023-01-13T04:48:20.180Z,3.48
2023-01-13T04:50:48.141Z,3.48
2023-01-13T04:53:16.307Z,3.48
2023-01-13T04:55:44.675Z,3.48
2023-01-13T04:58:13.615Z,3.49
2023-01-13T05:00:42.000Z,3.51
2023-01-13T05:03:10.393Z,3.52
2023-01-13T05:05:39.048Z,3.52
2023-01-13T05:08:07.178Z,3.53
2023-01-13T05:10:35.168Z,3.52
2023-01-13T05:13:21.559Z,3.57
2023-01-13T05:16:10.512Z,3.61
2023-01-13T05:18:40.990Z,3.65
2023-01-13T05:21:29.089Z,3.64
2023-01-13T05:24:16.908Z,3.55
2023-01-13T05:26:44.991Z,3.60
2023-01-13T05:29:12.987Z,3.60
2023-01-13T05:31:41.447Z,3.63
2023-01-13T05:34:10.016Z,3.65
2023-01-13T05:36:38.425Z,3.63
2023-01-13T05:39:09.366Z,3.64
2023-01-13T05:41:55.914Z,3.63
2023-01-13T05:44:24.494Z,3.64
2023-01-13T05:46:52.685Z,3.66
2023-01-13T05:49:20.698Z,3.69
2023-01-13T05:51:49.203Z,3.61
2023-01-13T05:54:17.955Z,3.62
2023-01-13T05:56:46.065Z,3.66
2023-01-13T05:59:16.930Z,3.66
2023-01-13T06:01:45.999Z,3.67
2023-01-13T06:04:14.075Z,3.62
2023-01-13T06:06:43.626Z,3.62
2023-01-13T06:09:11.854Z,3.66
2023-01-13T06:11:39.863Z,3.67
2023-01-13T06:14:08.108Z,3.68
2023-01-13T06:16:36.339Z,3.70
2023-01-13T06:19:09.101Z,3.70
2023-01-13T06:21:37.990Z,3.73
2023-01-13T06:24:08.011Z,3.76
2023-01-13T06:26:41.607Z,3.78
2023-01-13T06:29:14.713Z,3.78
2023-01-13T06:31:44.070Z,3.82
2023-01-13T06:34:14.286Z,3.82
2023-01-13T06:36:48.498Z,3.82
2023-01-13T06:39:20.244Z,3.80
2023-01-13T06:42:11.445Z,3.84
2023-01-13T06:44:39.987Z,3.87
2023-01-13T06:47:11.584Z,3.89
2023-01-13T06:49:39.577Z,3.92
2023-01-13T06:52:09.025Z,3.97
2023-01-13T06:54:37.128Z,3.96
2023-01-13T06:57:05.629Z,3.98
2023-01-13T06:59:35.268Z,4.04
2023-01-13T07:02:06.009Z,4.12
2023-01-13T07:04:34.040Z,4.13
2023-01-13T07:07:02.130Z,4.18
2023-01-13T07:09:30.124Z,4.25
2023-01-13T07:11:59.686Z,4.25
2023-01-13T07:14:46.557Z,4.19
2023-01-13T07:17:14.771Z,4.25
2023-01-13T07:19:42.899Z,4.25
2023-01-13T07:22:15.871Z,4.19
2023-01-13T07:24:44.463Z,4.25
2023-01-13T07:27:12.532Z,4.26
2023-01-13T07:29:41.674Z,4.27
2023-01-13T07:32:11.007Z,4.33
2023-01-13T07:34:39.135Z,4.39
2023-01-13T07:37:08.058Z,4.44
2023-01-13T07:39:35.979Z,4.44
2023-01-13T07:42:24.196Z,4.48
2023-01-13T07:44:52.164Z,4.57
2023-01-13T07:47:23.301Z,4.60
2023-01-13T07:49:51.468Z,4.66
2023-01-13T07:52:19.558Z,4.72
2023-01-13T07:54:47.743Z,4.80
2023-01-13T07:57:17.642Z,4.77
2023-01-13T07:59:45.845Z,4.86
2023-01-13T08:02:14.226Z,4.92
2023-01-13T08:04:42.470Z,4.97
2023-01-13T08:07:11.213Z,5.02
2023-01-13T08:09:39.284Z,5.01
2023-01-13T08:12:25.911Z,5.12
2023-01-13T08:14:54.387Z,5.12
2023-01-13T08:17:22.543Z,5.15
2023-01-13T08:19:50.483Z,5.18
2023-01-13T08:22:18.537Z,5.20
2023-01-13T08:24:46.840Z,5.24
2023-01-13T08:27:15.511Z,5.28
2023-01-13T08:29:43.880Z,5.34
2023-01-13T08:32:12.427Z,5.41
2023-01-13T08:34:41.254Z,5.40
2023-01-13T08:37:09.646Z,5.41
2023-01-13T08:39:43.222Z,5.40
2023-01-13T08:42:11.327Z,5.38
2023-01-13T08:44:39.613Z,5.36
2023-01-13T08:47:10.224Z,5.35
2023-01-13T08:49:38.490Z,5.38
2023-01-13T08:52:41.910Z,5.55
2023-01-13T08:55:25.715Z,5.39
2023-01-13T08:58:00.485Z,5.44
2023-01-13T09:00:35.517Z,5.50
2023-01-13T09:03:06.206Z,5.47
2023-01-13T09:05:36.644Z,5.44
2023-01-13T09:08:04.995Z,5.54
2023-01-13T09:10:35.916Z,5.46
2023-01-13T09:13:13.144Z,5.57
2023-01-13T09:15:46.142Z,5.70
2023-01-13T09:18:14.771Z,5.82
2023-01-13T09:20:45.385Z,5.97
2023-01-13T09:23:13.432Z,5.98
2023-01-13T09:25:41.644Z,6.09
2023-01-13T09:28:13.762Z,6.04
2023-01-13T09:30:42.222Z,6.20
2023-01-13T09:33:29.201Z,6.23
2023-01-13T09:36:01.396Z,6.37
2023-01-13T09:38:31.776Z,6.39
2023-01-13T09:40:59.937Z,6.41
2023-01-13T09:43:56.616Z,6.57
2023-01-13T09:46:45.387Z,6.49
2023-01-13T09:49:25.139Z,6.50
2023-01-13T09:52:21.063Z,6.57
2023-01-13T09:54:53.120Z,6.48
2023-01-13T09:57:21.980Z,6.62
2023-01-13T09:59:54.356Z,6.70
2023-01-13T10:02:37.384Z,6.83
2023-01-13T10:05:11.099Z,6.78
2023-01-13T10:07:57.740Z,6.88
2023-01-13T10:10:54.354Z,6.84
2023-01-13T10:13:28.387Z,6.96
2023-01-13T10:16:11.487Z,7.00
2023-01-13T10:19:10.892Z,6.91
2023-01-13T10:21:42.266Z,6.89
2023-01-13T10:24:20.536Z,6.84
2023-01-13T10:27:24.080Z,6.89
2023-01-13T10:29:52.748Z,6.81
2023-01-13T10:32:20.931Z,6.76
2023-01-13T10:34:51.670Z,6.79
2023-01-13T10:37:28.188Z,6.76
2023-01-13T10:40:01.957Z,6.77
2023-01-13T10:42:30.065Z,6.76
2023-01-13T10:45:02.952Z,6.76
2023-01-13T10:47:34.491Z,6.81
2023-01-13T10:50:10.838Z,6.89
2023-01-13T10:52:43.612Z,7.00
2023-01-13T10:55:35.619Z,7.08
2023-01-13T10:58:21.520Z,7.07
2023-01-13T11:00:58.663Z,7.19
2023-01-13T11:03:36.557Z,7.19
2023-01-13T11:06:04.946Z,7.26
2023-01-13T11:08:45.481Z,7.37
2023-01-13T11:11:44.492Z,7.52
2023-01-13T11:14:41.558Z,7.61
2023-01-13T11:17:40.657Z,7.68
2023-01-13T11:20:11.998Z,7.75
2023-01-13T11:22:53.095Z,7.71
2023-01-13T11:25:42.973Z,7.78
2023-01-13T11:28:30.462Z,7.99
2023-01-13T11:31:24.728Z,8.03
2023-01-13T11:34:08.324Z,8.16
2023-01-13T11:36:46.469Z,7.88
2023-01-13T11:39:44.438Z,7.87
2023-01-13T11:42:31.577Z,7.72
2023-01-13T11:45:28.901Z,7.61
2023-01-13T11:48:00.552Z,7.72
2023-01-13T11:50:41.697Z,7.82
2023-01-13T11:53:41.697Z,7.80
2023-01-13T11:56:40.836Z,7.87
2023-01-13T11:59:09.152Z,7.79
2023-01-13T12:01:46.920Z,7.90
2023-01-13T12:04:38.916Z,7.82
2023-01-13T12:07:32.775Z,7.55
2023-01-13T12:10:30.075Z,7.60
2023-01-13T12:13:14.406Z,7.53
2023-01-13T12:16:01.317Z,7.49
2023-01-13T12:18:50.019Z,7.44
2023-01-13T12:21:21.520Z,7.42
2023-01-13T12:24:02.274Z,7.40
2023-01-13T12:26:37.803Z,7.45
2023-01-13T12:29:20.935Z,7.48
2023-01-13T12:31:52.215Z,7.54
2023-01-13T12:34:29.239Z,7.59
2023-01-13T12:37:08.945Z,7.66
2023-01-13T12:39:57.354Z,7.80
2023-01-13T12:42:46.728Z,7.90
2023-01-13T12:45:15.780Z,7.85
2023-01-13T12:47:48.816Z,7.80
2023-01-13T12:50:23.709Z,7.69
2023-01-13T12:52:52.303Z,7.77
2023-01-13T12:55:38.924Z,7.77
2023-01-13T12:58:08.251Z,7.93
2023-01-13T13:00:38.348Z,7.97
2023-01-13T13:03:12.680Z,7.99
2023-01-13T13:06:18.539Z,7.85
2023-01-13T13:09:04.415Z,7.85
2023-01-13T13:11:58.568Z,7.84
2023-01-13T13:14:42.022Z,7.85
2023-01-13T13:17:32.450Z,7.86
2023-01-13T13:20:03.857Z,7.89
2023-01-13T13:22:46.539Z,7.91
2023-01-13T13:25:22.798Z,7.92
2023-01-13T13:28:02.727Z,7.90
2023-01-13T13:30:36.854Z,7.85
2023-01-13T13:33:21.052Z,7.79
2023-01-13T13:36:03.731Z,7.80
2023-01-13T13:39:21.627Z,7.77
2023-01-13T13:42:12.697Z,7.77
2023-01-13T13:45:05.321Z,7.73
2023-01-13T13:47:38.001Z,7.65
2023-01-13T13:50:19.802Z,7.52
2023-01-13T13:53:05.905Z,7.49
2023-01-13T13:55:36.801Z,7.42
2023-01-13T13:58:05.994Z,7.35
2023-01-13T14:00:38.195Z,7.29
2023-01-13T14:03:20.928Z,7.31
2023-01-13T14:05:56.417Z,7.25
2023-01-13T14:08:25.420Z,7.22
2023-01-13T14:10:54.805Z,7.20
2023-01-13T14:13:31.496Z,7.17
2023-01-13T14:16:06.893Z,7.10
2023-01-13T14:18:49.367Z,7.06
2023-01-13T14:21:25.129Z,7.01
2023-01-13T14:24:15.572Z,6.93
2023-01-13T14:26:43.777Z,6.81
2023-01-13T14:29:18.498Z,6.79
2023-01-13T14:31:47.833Z,6.69
2023-01-13T14:34:30.639Z,6.60
2023-01-13T14:37:03.085Z,6.58
2023-01-13T14:39:41.731Z,6.55
2023-01-13T14:42:15.607Z,6.52
2023-01-13T14:44:51.077Z,6.46
2023-01-13T14:47:21.903Z,6.38
2023-01-13T14:50:05.778Z,6.26
2023-01-13T14:52:38.320Z,6.17
2023-01-13T14:55:06.951Z,6.09
2023-01-13T14:57:41.808Z,5.98
2023-01-13T15:00:15.899Z,5.89
2023-01-13T15:03:05.781Z,5.76
2023-01-13T15:05:42.728Z,5.70
2023-01-13T15:08:14.782Z,5.58
2023-01-13T15:10:54.861Z,5.48
2023-01-13T15:13:22.843Z,5.38
2023-01-13T15:15:53.522Z,5.31
2023-01-13T15:18:21.751Z,5.24
2023-01-13T15:20:52.436Z,5.15
2023-01-13T15:23:21.160Z,5.08
2023-01-13T15:25:49.861Z,4.98
2023-01-13T15:28:25.462Z,4.90
2023-01-13T15:31:00.729Z,4.81
2023-01-13T15:33:30.913Z,4.74
2023-01-13T15:35:59.083Z,4.66
2023-01-13T15:38:30.543Z,4.58
2023-01-13T15:41:01.281Z,4.52
2023-01-13T15:43:48.504Z,4.47
2023-01-13T15:46:37.370Z,4.40
2023-01-13T15:49:13.357Z,4.34
2023-01-13T15:51:41.633Z,4.30
2023-01-13T15:54:09.726Z,4.26
2023-01-13T15:56:39.680Z,4.22
2023-01-13T15:59:34.621Z,4.17
2023-01-13T16:02:03.376Z,4.14
2023-01-13T16:04:31.581Z,4.09
2023-01-13T16:07:10.155Z,4.05
2023-01-13T16:09:39.406Z,4.01
2023-01-13T16:12:08.054Z,3.97
2023-01-13T16:14:36.781Z,3.91
2023-01-13T16:17:17.433Z,3.88
2023-01-13T16:19:46.570Z,3.84
2023-01-13T16:22:16.321Z,3.81
2023-01-13T16:24:45.757Z,3.79
2023-01-13T16:27:17.404Z,3.75
2023-01-13T16:29:46.887Z,3.71
2023-01-13T16:32:17.476Z,3.67
2023-01-13T16:34:46.864Z,3.63
2023-01-13T16:37:20.979Z,3.60
2023-01-13T16:39:49.198Z,3.56
2023-01-13T16:42:17.800Z,3.52
2023-01-13T16:44:48.297Z,3.49
2023-01-13T16:47:17.898Z,3.43
2023-01-13T16:49:46.492Z,3.38
2023-01-13T16:52:17.907Z,3.33
2023-01-13T16:54:46.072Z,3.26
2023-01-13T16:57:15.283Z,3.19
2023-01-13T16:59:44.625Z,3.16
2023-01-13T17:02:20.258Z,3.13
2023-01-13T17:04:50.101Z,3.11
2023-01-13T17:07:18.509Z,3.09
2023-01-13T17:09:46.584Z,3.05
2023-01-13T17:12:14.721Z,3.00
2023-01-13T17:14:43.542Z,2.94
2023-01-13T17:17:28.210Z,2.88
2023-01-13T17:19:56.615Z,2.85
2023-01-13T17:22:25.603Z,2.83
2023-01-13T17:24:54.995Z,2.79
2023-01-13T17:27:23.535Z,2.74
2023-01-13T17:29:52.548Z,2.71
2023-01-13T17:32:23.072Z,2.66
2023-01-13T17:34:54.073Z,2.64
2023-01-13T17:37:22.954Z,2.60
2023-01-13T17:39:53.764Z,2.58
2023-01-13T17:42:25.100Z,2.58
2023-01-13T17:44:53.236Z,2.55
2023-01-13T17:47:21.756Z,2.53
2023-01-13T17:49:50.477Z,2.49
2023-01-13T17:52:18.975Z,2.48
2023-01-13T17:54:47.378Z,2.45
2023-01-13T17:57:15.355Z,2.43
2023-01-13T17:59:43.544Z,2.43
2023-01-13T18:02:12.794Z,2.42
2023-01-13T18:04:41.730Z,2.40
2023-01-13T18:07:10.434Z,2.39
2023-01-13T18:09:39.249Z,2.36
2023-01-13T18:12:07.456Z,2.33
2023-01-13T18:14:35.484Z,2.31
2023-01-13T18:17:03.805Z,2.28
2023-01-13T18:19:51.151Z,2.25
2023-01-13T18:22:37.908Z,2.24
2023-01-13T18:25:25.014Z,2.21
2023-01-13T18:27:53.135Z,2.20
2023-01-13T18:30:21.478Z,2.18
2023-01-13T18:32:49.628Z,2.17
2023-01-13T18:35:20.070Z,2.14
2023-01-13T18:37:48.365Z,2.11
2023-01-13T18:40:17.449Z,2.09
2023-01-13T18:42:54.810Z,2.07
2023-01-13T18:45:32.468Z,2.06
2023-01-13T18:48:02.780Z,2.05
2023-01-13T18:50:37.072Z,2.02
2023-01-13T18:53:05.346Z,2.00
2023-01-13T18:55:33.518Z,1.97
2023-01-13T18:58:01.587Z,1.95
2023-01-13T19:00:36.723Z,1.92
2023-01-13T19:05:38.294Z,1.87
2023-01-13T19:08:06.988Z,1.85
2023-01-13T19:10:36.217Z,1.83
2023-01-13T19:13:12.023Z,1.79
2023-01-13T19:15:41.721Z,1.76
2023-01-13T19:18:09.937Z,1.74
2023-01-13T19:20:38.393Z,1.70
2023-01-13T19:23:06.601Z,1.67
2023-01-13T19:25:36.117Z,1.64
2023-01-13T19:28:04.497Z,1.61
2023-01-13T19:30:32.666Z,1.59
2023-01-13T19:33:00.758Z,1.58
2023-01-13T19:35:29.000Z,1.57
2023-01-13T19:37:58.499Z,1.54
2023-01-13T19:40:27.339Z,1.53
2023-01-13T19:43:14.017Z,1.52
2023-01-13T19:45:42.362Z,1.51
2023-01-13T19:48:10.950Z,1.46
2023-01-13T19:50:40.480Z,1.44
2023-01-13T19:53:16.639Z,1.42
2023-01-13T19:55:49.289Z,1.38
2023-01-13T19:58:20.724Z,1.34
2023-01-13T20:00:51.500Z,1.29
2023-01-13T20:03:26.198Z,1.25
2023-01-13T20:06:04.038Z,1.21
2023-01-13T20:08:34.501Z,1.18
2023-01-13T20:11:21.301Z,1.13
2023-01-13T20:13:52.070Z,1.08
2023-01-13T20:16:20.210Z,1.02
2023-01-13T20:18:51.873Z,0.96
2023-01-13T20:21:19.884Z,0.90
2023-01-13T20:23:53.813Z,0.83
2023-01-13T20:26:21.813Z,0.79
2023-01-13T20:28:49.750Z,0.74
2023-01-13T20:31:17.966Z,0.67
2023-01-13T20:33:51.031Z,0.60
2023-01-13T20:36:31.506Z,0.56
2023-01-13T20:39:02.291Z,0.51
2023-01-13T20:41:49.003Z,0.48
2023-01-13T20:44:17.015Z,0.45
2023-01-13T20:46:45.607Z,0.43
2023-01-13T20:49:15.281Z,0.40
2023-01-13T20:51:43.206Z,0.39
2023-01-13T20:54:11.457Z,0.36
2023-01-13T20:56:41.798Z,0.32
2023-01-13T20:59:10.615Z,0.30
2023-01-13T21:01:38.967Z,0.26
2023-01-13T21:04:07.260Z,0.25
2023-01-13T21:06:36.238Z,0.23
2023-01-13T21:09:04.680Z,0.21
2023-01-13T21:11:51.433Z,0.19
2023-01-13T21:14:41.280Z,0.17
2023-01-13T21:17:31.419Z,0.15
2023-01-13T21:20:04.308Z,0.11
2023-01-13T21:22:32.848Z,0.08
2023-01-13T21:25:02.435Z,0.06
2023-01-13T21:27:31.440Z,0.03
2023-01-13T21:29:59.456Z,0.02
2023-01-13T21:32:27.541Z,0.01
2023-01-13T21:34:59.418Z,-0.01
2023-01-13T21:37:27.577Z,-0.02
2023-01-13T21:39:55.922Z,-0.05
2023-01-13T21:42:43.130Z,-0.07
2023-01-13T21:45:30.171Z,-0.11
2023-01-13T21:47:58.378Z,-0.14
2023-01-13T21:50:28.861Z,-0.17
2023-01-13T21:52:58.545Z,-0.19
2023-01-13T21:55:29.794Z,-0.19
2023-01-13T21:57:57.751Z,-0.19
2023-01-13T22:00:29.823Z,-0.21
2023-01-13T22:03:00.294Z,-0.20
2023-01-13T22:05:28.472Z,-0.20
2023-01-13T22:07:56.457Z,-0.22
2023-01-13T22:10:27.357Z,-0.23
2023-01-13T22:12:57.912Z,-0.23
2023-01-13T22:15:28.457Z,-0.24
2023-01-13T22:17:57.248Z,-0.25
2023-01-13T22:20:26.765Z,-0.24
2023-01-13T22:22:54.723Z,-0.24
2023-01-13T22:25:23.749Z,-0.26
2023-01-13T22:27:56.473Z,-0.33
2023-01-13T22:30:25.237Z,-0.36
2023-01-13T22:32:54.261Z,-0.42
2023-01-13T22:35:22.320Z,-0.47
2023-01-13T22:37:50.426Z,-0.51
2023-01-13T22:40:18.728Z,-0.55
2023-01-13T22:42:46.927Z,-0.59
2023-01-13T22:45:15.409Z,-0.63
2023-01-13T22:47:44.286Z,-0.65
2023-01-13T22:50:12.726Z,-0.65
2023-01-13T22:52:40.841Z,-0.65
2023-01-13T22:55:09.541Z,-0.65
2023-01-13T22:57:47.754Z,-0.65
2023-01-13T23:00:21.008Z,-0.67
2023-01-13T23:02:51.078Z,-0.68
2023-01-13T23:05:19.280Z,-0.70
2023-01-13T23:07:47.325Z,-0.71
2023-01-13T23:10:15.662Z,-0.73
2023-01-13T23:12:43.819Z,-0.75
2023-01-13T23:15:13.094Z,-0.73
2023-01-13T23:17:41.520Z,-0.70
2023-01-13T23:20:10.687Z,-0.70
2023-01-13T23:22:40.840Z,-0.72
2023-01-13T23:25:10.045Z,-0.75
2023-01-13T23:27:38.415Z,-0.79
2023-01-13T23:30:09.170Z,-0.83
2023-01-13T23:32:37.558Z,-0.90
2023-01-13T23:35:06.076Z,-0.91
2023-01-13T23:37:34.535Z,-0.93
2023-01-13T23:40:04.497Z,-0.93
2023-01-13T23:42:32.482Z,-0.95
2023-01-13T23:45:01.984Z,-0.99
2023-01-13T23:47:30.463Z,-1.00
2023-01-13T23:49:58.443Z,-1.00
2023-01-13T23:52:27.879Z,-1.05
2023-01-13T23:54:57.184Z,-1.07
2023-01-13T23:57:25.759Z,-1.09
2023-01-13T23:59:53.800Z,-1.10
